createdAt,value
2019-04-12T00:02:05.546Z,3.10
2019-04-12T00:04:34.111Z,2.90
2019-04-12T00:07:03.201Z,2.90
2019-04-12T00:09:32.606Z,3.00
2019-04-12T00:12:01.058Z,3.00
2019-04-12T00:14:29.508Z,3.00
2019-04-12T00:16:57.989Z,3.00
2019-04-12T00:19:26.451Z,3.00
2019-04-12T00:21:54.934Z,3.00
2019-04-12T00:24:34.109Z,3.10
2019-04-12T00:26:53.685Z,2.80
2019-04-12T00:29:22.214Z,3.00
2019-04-12T00:31:51.426Z,3.00
2019-04-12T00:34:23.008Z,2.80
2019-04-12T00:36:53.162Z,2.70
2019-04-12T00:39:21.006Z,2.70
2019-04-12T00:41:49.483Z,2.70
2019-04-12T00:44:18.018Z,2.70
2019-04-12T00:46:46.570Z,2.70
2019-04-12T00:49:15.106Z,2.70
2019-04-12T00:51:43.676Z,2.60
2019-04-12T00:54:13.584Z,2.60
2019-04-12T00:56:46.205Z,2.80
2019-04-12T00:59:17.131Z,2.70
2019-04-12T01:02:00.450Z,2.60
2019-04-12T01:04:30.621Z,2.60
2019-04-12T01:06:59.174Z,2.50
2019-04-12T01:09:27.774Z,2.40
2019-04-12T01:11:56.419Z,2.40
2019-04-12T01:14:27.488Z,2.50
2019-04-12T01:16:55.168Z,2.40
2019-04-12T01:19:23.698Z,2.40
2019-04-12T01:21:58.815Z,2.20
2019-04-12T01:24:27.618Z,2.00
2019-04-12T01:26:56.174Z,2.10
2019-04-12T01:29:24.638Z,2.10
2019-04-12T01:31:53.207Z,2.10
2019-04-12T01:34:21.743Z,2.10
2019-04-12T01:36:50.303Z,2.10
2019-04-12T01:39:18.838Z,2.10
2019-04-12T01:41:47.331Z,2.30
2019-04-12T01:44:16.343Z,2.20
2019-04-12T01:46:44.910Z,2.20
2019-04-12T01:49:13.450Z,2.40
2019-04-12T01:51:42.027Z,2.40
2019-04-12T01:54:10.557Z,2.10
2019-04-12T01:56:39.090Z,2.00
2019-04-12T01:59:07.666Z,1.90
2019-04-12T02:01:36.202Z,1.80
2019-04-12T02:04:04.836Z,1.70
2019-04-12T02:06:33.695Z,1.70
2019-04-12T02:09:02.257Z,1.70
2019-04-12T02:11:30.790Z,1.90
2019-04-12T02:13:59.354Z,2.00
2019-04-12T02:16:27.891Z,2.00
2019-04-12T02:18:56.454Z,1.90
2019-04-12T02:21:24.989Z,1.80
2019-04-12T02:23:53.479Z,1.70
2019-04-12T02:26:21.947Z,1.70
2019-04-12T02:28:53.600Z,1.70
2019-04-12T02:31:26.984Z,1.60
2019-04-12T02:33:56.594Z,1.60
2019-04-12T02:36:32.184Z,1.60
2019-04-12T02:39:00.820Z,1.80
2019-04-12T02:41:29.719Z,1.70
2019-04-12T02:43:59.328Z,1.70
2019-04-12T02:46:31.536Z,1.60
2019-04-12T02:49:13.296Z,1.70
2019-04-12T02:51:49.175Z,1.70
2019-04-12T02:54:25.098Z,1.70
2019-04-12T02:56:58.052Z,1.60
2019-04-12T02:59:28.506Z,1.60
2019-04-12T03:01:59.656Z,1.60
2019-04-12T03:04:28.284Z,1.50
2019-04-12T03:06:57.593Z,1.40
2019-04-12T03:09:29.064Z,1.50
2019-04-12T03:11:59.444Z,1.80
2019-04-12T03:14:31.224Z,1.70
2019-04-12T03:17:01.596Z,1.60
2019-04-12T03:19:31.167Z,1.60
2019-04-12T03:22:00.573Z,1.50
2019-04-12T03:24:29.661Z,1.60
2019-04-12T03:26:58.857Z,1.50
2019-04-12T03:29:27.626Z,1.40
2019-04-12T03:31:56.763Z,1.40
2019-04-12T03:34:25.457Z,1.50
2019-04-12T03:36:54.275Z,1.60
2019-04-12T03:39:23.134Z,1.50
2019-04-12T03:41:52.285Z,1.50
2019-04-12T03:44:20.875Z,1.40
2019-04-12T03:46:49.502Z,1.50
2019-04-12T03:49:18.191Z,1.60
2019-04-12T03:51:47.117Z,1.60
2019-04-12T03:54:16.675Z,1.70
2019-04-12T03:56:45.388Z,1.60
2019-04-12T03:59:19.822Z,1.50
2019-04-12T04:01:57.923Z,1.50
2019-04-12T04:04:26.895Z,1.60
2019-04-12T04:06:56.312Z,1.60
2019-04-12T04:09:25.284Z,1.60
2019-04-12T04:11:54.079Z,1.50
2019-04-12T04:14:23.853Z,1.60
2019-04-12T04:17:12.387Z,1.60
2019-04-12T04:19:42.642Z,1.60
2019-04-12T04:22:13.419Z,1.70
2019-04-12T04:24:47.030Z,1.80
2019-04-12T04:27:32.657Z,1.80
2019-04-12T04:30:02.913Z,1.90
2019-04-12T04:32:33.940Z,2.00
2019-04-12T04:35:03.011Z,1.90
2019-04-12T04:37:32.619Z,2.00
2019-04-12T04:40:01.487Z,2.10
2019-04-12T04:42:30.200Z,2.00
2019-04-12T04:44:59.300Z,2.20
2019-04-12T04:47:27.860Z,2.20
2019-04-12T04:49:56.464Z,2.10
2019-04-12T04:52:25.166Z,2.00
2019-04-12T04:54:54.037Z,2.10
2019-04-12T04:57:22.603Z,2.10
2019-04-12T04:59:51.371Z,2.10
2019-04-12T05:02:20.207Z,2.00
2019-04-12T05:04:49.074Z,2.20
2019-04-12T05:07:17.780Z,2.00
2019-04-12T05:09:46.394Z,2.10
2019-04-12T05:12:15.291Z,2.10
2019-04-12T05:14:44.122Z,2.20
2019-04-12T05:17:12.836Z,2.20
2019-04-12T05:19:41.507Z,2.20
2019-04-12T05:22:10.500Z,2.10
2019-04-12T05:24:39.436Z,2.20
2019-04-12T05:27:08.323Z,2.30
2019-04-12T05:29:37.025Z,2.40
2019-04-12T05:32:05.824Z,2.60
2019-04-12T05:34:34.530Z,2.50
2019-04-12T05:37:10.119Z,2.60
2019-04-12T05:39:33.863Z,2.70
2019-04-12T05:42:02.534Z,2.70
2019-04-12T05:44:31.163Z,2.80
2019-04-12T05:47:01.342Z,2.80
2019-04-12T05:49:34.382Z,2.90
2019-04-12T05:52:03.057Z,3.00
2019-04-12T05:54:32.761Z,2.90
2019-04-12T05:57:02.166Z,3.00
2019-04-12T05:59:35.093Z,2.90
2019-04-12T06:02:08.569Z,3.00
2019-04-12T06:04:37.131Z,3.10
2019-04-12T06:07:05.659Z,3.20
2019-04-12T06:09:34.298Z,3.10
2019-04-12T06:12:02.839Z,3.20
2019-04-12T06:14:31.647Z,3.30
2019-04-12T06:17:01.811Z,3.20
2019-04-12T06:19:31.322Z,3.30
2019-04-12T06:22:10.937Z,3.50
2019-04-12T06:24:40.358Z,3.40
2019-04-12T06:27:12.978Z,3.40
2019-04-12T06:29:41.546Z,3.60
2019-04-12T06:32:10.325Z,3.70
2019-04-12T06:34:39.027Z,3.60
2019-04-12T06:37:07.626Z,3.80
2019-04-12T06:39:36.154Z,3.90
2019-04-12T06:42:04.641Z,4.00
2019-04-12T06:44:33.567Z,3.90
2019-04-12T06:47:02.274Z,3.90
2019-04-12T06:49:31.036Z,3.90
2019-04-12T06:51:59.927Z,4.00
2019-04-12T06:54:28.458Z,4.10
2019-04-12T06:56:58.747Z,4.30
2019-04-12T06:59:27.282Z,4.40
2019-04-12T07:02:06.762Z,4.30
2019-04-12T07:04:37.002Z,4.30
2019-04-12T07:07:05.563Z,4.30
2019-04-12T07:09:34.105Z,4.30
2019-04-12T07:12:03.010Z,4.50
2019-04-12T07:14:31.544Z,4.60
2019-04-12T07:17:00.181Z,4.50
2019-04-12T07:19:28.726Z,4.70
2019-04-12T07:21:57.221Z,4.90
2019-04-12T07:24:26.018Z,4.90
2019-04-12T07:26:54.583Z,5.10
2019-04-12T07:29:23.126Z,5.10
2019-04-12T07:31:51.707Z,5.30
2019-04-12T07:34:20.249Z,5.30
2019-04-12T07:36:48.807Z,5.30
2019-04-12T07:39:17.419Z,5.40
2019-04-12T07:41:45.998Z,5.60
2019-04-12T07:44:14.536Z,5.70
2019-04-12T07:46:43.105Z,5.80
2019-04-12T07:49:11.643Z,5.90
2019-04-12T07:51:50.978Z,6.10
2019-04-12T07:54:24.112Z,6.20
2019-04-12T07:56:52.966Z,6.10
2019-04-12T07:59:23.171Z,6.10
2019-04-12T08:01:53.613Z,6.00
2019-04-12T08:04:32.746Z,6.10
2019-04-12T08:07:21.419Z,6.10
2019-04-12T08:09:49.954Z,6.10
2019-04-12T08:12:18.520Z,6.30
2019-04-12T08:14:47.055Z,6.40
2019-04-12T08:17:15.692Z,6.30
2019-04-12T08:19:44.229Z,6.40
2019-04-12T08:22:12.723Z,6.60
2019-04-12T08:24:41.830Z,6.40
2019-04-12T08:27:10.472Z,6.20
2019-04-12T08:29:39.045Z,6.40
2019-04-12T08:32:07.590Z,6.50
2019-04-12T08:34:36.169Z,6.80
2019-04-12T08:37:04.716Z,7.00
2019-04-12T08:39:33.284Z,7.00
2019-04-12T08:42:01.893Z,7.10
2019-04-12T08:44:30.462Z,7.10
2019-04-12T08:46:59.012Z,7.20
2019-04-12T08:49:27.587Z,7.20
2019-04-12T08:51:56.101Z,7.20
2019-04-12T08:54:24.675Z,7.20
2019-04-12T08:56:53.682Z,7.30
2019-04-12T08:59:22.575Z,7.40
2019-04-12T09:01:51.153Z,7.40
2019-04-12T09:04:19.722Z,7.30
2019-04-12T09:06:48.394Z,7.10
2019-04-12T09:09:18.879Z,7.30
2019-04-12T09:11:47.359Z,7.40
2019-04-12T09:14:15.896Z,7.40
2019-04-12T09:16:44.517Z,7.40
2019-04-12T09:19:23.745Z,7.20
2019-04-12T09:21:59.956Z,7.30
2019-04-12T09:24:33.084Z,7.60
2019-04-12T09:27:01.709Z,7.70
2019-04-12T09:29:30.373Z,8.00
2019-04-12T09:31:59.022Z,8.10
2019-04-12T09:34:27.582Z,8.30
2019-04-12T09:36:56.382Z,8.30
2019-04-12T09:39:26.269Z,8.40
2019-04-12T09:41:54.995Z,8.40
2019-04-12T09:44:23.554Z,8.50
2019-04-12T09:46:52.092Z,8.40
2019-04-12T09:49:21.481Z,8.30
2019-04-12T09:51:50.528Z,8.20
2019-04-12T09:54:19.091Z,8.50
2019-04-12T09:56:47.629Z,8.50
2019-04-12T09:59:16.474Z,8.60
2019-04-12T10:01:45.013Z,8.70
2019-04-12T10:04:13.619Z,8.60
2019-04-12T10:06:42.166Z,8.70
2019-04-12T10:09:14.195Z,8.60
2019-04-12T10:11:41.140Z,8.50
2019-04-12T10:14:09.702Z,8.40
2019-04-12T10:16:38.247Z,8.40
2019-04-12T10:19:06.810Z,8.50
2019-04-12T10:21:35.354Z,8.50
2019-04-12T10:24:04.085Z,8.60
2019-04-12T10:26:32.615Z,8.60
2019-04-12T10:29:01.494Z,8.50
2019-04-12T10:31:30.379Z,8.60
2019-04-12T10:34:00.714Z,8.70
2019-04-12T10:36:29.450Z,8.80
2019-04-12T10:39:08.562Z,8.80
2019-04-12T10:41:37.227Z,8.50
2019-04-12T10:44:19.311Z,8.60
2019-04-12T10:46:49.590Z,8.80
2019-04-12T10:49:32.127Z,8.80
2019-04-12T10:52:05.053Z,9.00
2019-04-12T10:54:51.667Z,9.10
2019-04-12T10:57:20.505Z,9.20
2019-04-12T10:59:49.061Z,9.10
2019-04-12T11:02:17.863Z,9.20
2019-04-12T11:04:46.397Z,9.10
2019-04-12T11:07:14.886Z,9.10
2019-04-12T11:09:43.426Z,9.20
2019-04-12T11:12:11.995Z,9.40
2019-04-12T11:14:40.533Z,9.40
2019-04-12T11:17:09.234Z,9.40
2019-04-12T11:19:37.767Z,9.40
2019-04-12T11:22:06.408Z,9.60
2019-04-12T11:24:34.943Z,9.60
2019-04-12T11:27:03.514Z,9.50
2019-04-12T11:29:32.043Z,9.30
2019-04-12T11:32:00.608Z,9.30
2019-04-12T11:34:29.143Z,9.10
2019-04-12T11:36:57.702Z,9.00
2019-04-12T11:39:26.234Z,9.10
2019-04-12T11:41:54.788Z,9.30
2019-04-12T11:44:23.742Z,9.30
2019-04-12T11:46:52.313Z,9.30
2019-04-12T11:49:20.860Z,9.40
2019-04-12T11:51:49.416Z,9.40
2019-04-12T11:54:18.023Z,9.30
2019-04-12T11:56:46.854Z,9.50
2019-04-12T11:59:15.388Z,9.50
2019-04-12T12:01:45.594Z,9.30
2019-04-12T12:04:18.443Z,9.30
2019-04-12T12:06:48.647Z,9.40
2019-04-12T12:09:34.227Z,9.40
2019-04-12T12:12:07.560Z,9.50
2019-04-12T12:14:37.745Z,9.50
2019-04-12T12:17:16.522Z,9.50
2019-04-12T12:19:45.062Z,9.40
2019-04-12T12:22:16.230Z,9.40
2019-04-12T12:24:43.814Z,9.60
2019-04-12T12:27:12.375Z,9.50
2019-04-12T12:29:42.820Z,9.70
2019-04-12T12:32:11.194Z,9.60
2019-04-12T12:34:39.731Z,9.60
2019-04-12T12:37:08.290Z,9.40
2019-04-12T12:39:36.750Z,9.40
2019-04-12T12:42:05.378Z,9.50
2019-04-12T12:44:33.914Z,9.50
2019-04-12T12:47:02.544Z,9.40
2019-04-12T12:49:31.150Z,9.10
2019-04-12T12:51:59.689Z,9.50
2019-04-12T12:54:28.318Z,9.80
2019-04-12T12:56:56.863Z,9.90
2019-04-12T12:59:25.424Z,9.80
2019-04-12T13:01:53.963Z,9.50
2019-04-12T13:04:22.523Z,9.40
2019-04-12T13:06:51.319Z,9.40
2019-04-12T13:09:19.881Z,9.40
2019-04-12T13:11:48.411Z,9.50
2019-04-12T13:14:16.903Z,9.60
2019-04-12T13:16:45.429Z,9.20
2019-04-12T13:19:13.915Z,9.00
2019-04-12T13:21:42.449Z,9.10
2019-04-12T13:24:11.082Z,9.10
2019-04-12T13:26:39.776Z,9.30
2019-04-12T13:29:08.340Z,9.20
2019-04-12T13:31:53.952Z,9.20
2019-04-12T13:34:24.159Z,8.90
2019-04-12T13:36:54.343Z,8.90
2019-04-12T13:39:36.870Z,8.90
2019-04-12T13:42:06.974Z,8.50
2019-04-12T13:44:35.543Z,8.80
2019-04-12T13:47:04.147Z,8.80
2019-04-12T13:49:32.714Z,8.90
2019-04-12T13:52:02.357Z,8.70
2019-04-12T13:54:31.014Z,8.60
2019-04-12T13:56:59.467Z,8.80
2019-04-12T13:59:28.035Z,8.60
2019-04-12T14:01:56.899Z,8.70
2019-04-12T14:04:25.476Z,8.70
2019-04-12T14:06:54.262Z,8.60
2019-04-12T14:09:22.827Z,8.50
2019-04-12T14:11:51.360Z,8.60
2019-04-12T14:14:19.930Z,8.70
2019-04-12T14:16:48.469Z,9.00
2019-04-12T14:19:17.038Z,8.90
2019-04-12T14:21:45.570Z,8.80
2019-04-12T14:24:14.309Z,8.90
2019-04-12T14:27:02.149Z,8.90
2019-04-12T14:29:30.711Z,8.80
2019-04-12T14:31:59.873Z,8.60
2019-04-12T14:34:48.089Z,8.60
2019-04-12T14:37:18.602Z,8.70
2019-04-12T14:39:47.099Z,8.70
2019-04-12T14:42:15.638Z,8.70
2019-04-12T14:44:48.567Z,8.60
2019-04-12T14:47:27.549Z,8.50
2019-04-12T14:49:56.460Z,8.30
2019-04-12T14:52:24.994Z,8.30
2019-04-12T14:54:53.535Z,8.50
2019-04-12T14:57:22.094Z,8.40
2019-04-12T14:59:50.656Z,8.30
2019-04-12T15:02:19.659Z,8.10
2019-04-12T15:04:48.126Z,8.00
2019-04-12T15:07:16.696Z,8.00
2019-04-12T15:09:45.241Z,8.10
2019-04-12T15:12:13.799Z,8.20
2019-04-12T15:14:42.335Z,8.40
2019-04-12T15:17:10.903Z,8.50
2019-04-12T15:19:39.443Z,8.70
2019-04-12T15:22:08.109Z,8.60
2019-04-12T15:24:36.617Z,8.60
2019-04-12T15:27:05.587Z,8.50
2019-04-12T15:29:34.127Z,8.00
2019-04-12T15:32:02.696Z,8.20
2019-04-12T15:34:31.530Z,8.30
2019-04-12T15:37:00.099Z,8.20
2019-04-12T15:39:28.630Z,8.10
2019-04-12T15:41:57.378Z,8.00
2019-04-12T15:44:25.919Z,7.90
2019-04-12T15:46:54.486Z,8.00
2019-04-12T15:49:23.018Z,8.00
2019-04-12T15:51:51.574Z,8.00
2019-04-12T15:54:20.043Z,7.80
2019-04-12T15:56:48.603Z,7.70
2019-04-12T15:59:17.134Z,7.70
2019-04-12T16:01:45.623Z,7.60
2019-04-12T16:04:14.228Z,7.60
2019-04-12T16:06:43.423Z,7.80
2019-04-12T16:09:19.654Z,7.90
2019-04-12T16:11:54.217Z,7.80
2019-04-12T16:14:23.382Z,7.80
2019-04-12T16:17:13.129Z,7.80
2019-04-12T16:19:41.667Z,7.70
2019-04-12T16:22:10.230Z,7.70
2019-04-12T16:24:38.688Z,7.60
2019-04-12T16:27:07.257Z,7.60
2019-04-12T16:29:46.644Z,7.70
2019-04-12T16:32:29.161Z,7.80
2019-04-12T16:35:14.202Z,7.80
2019-04-12T16:37:56.166Z,7.80
2019-04-12T16:40:24.630Z,7.50
2019-04-12T16:42:53.196Z,7.30
2019-04-12T16:45:21.802Z,7.20
2019-04-12T16:47:50.365Z,7.20
2019-04-12T16:50:18.902Z,7.20
2019-04-12T16:52:47.466Z,7.10
2019-04-12T16:55:16.045Z,7.00
2019-04-12T16:57:44.616Z,7.10
2019-04-12T17:00:13.893Z,7.10
2019-04-12T17:02:42.695Z,7.00
2019-04-12T17:05:11.497Z,7.00
2019-04-12T17:07:50.819Z,7.10
2019-04-12T17:10:10.382Z,6.90
2019-04-12T17:12:38.923Z,7.00
2019-04-12T17:15:07.622Z,6.90
2019-04-12T17:17:36.157Z,6.90
2019-04-12T17:20:05.961Z,6.90
2019-04-12T17:22:34.499Z,6.80
2019-04-12T17:25:06.480Z,6.70
2019-04-12T17:27:33.318Z,6.70
2019-04-12T17:30:01.817Z,6.80
2019-04-12T17:32:30.370Z,6.60
2019-04-12T17:34:58.927Z,6.60
2019-04-12T17:37:27.475Z,6.70
2019-04-12T17:39:56.041Z,6.70
2019-04-12T17:42:24.903Z,6.70
2019-04-12T17:44:53.466Z,6.60
2019-04-12T17:47:21.930Z,6.50
2019-04-12T17:49:52.139Z,6.50
2019-04-12T17:52:25.070Z,6.40
2019-04-12T17:55:11.526Z,6.40
2019-04-12T17:57:40.066Z,6.30
2019-04-12T18:00:10.882Z,6.40
2019-04-12T18:02:43.743Z,6.40
2019-04-12T18:05:13.807Z,6.40
2019-04-12T18:07:42.583Z,6.30
2019-04-12T18:10:13.186Z,6.10
2019-04-12T18:12:41.800Z,6.10
2019-04-12T18:15:12.638Z,6.00
2019-04-12T18:17:41.180Z,6.00
2019-04-12T18:20:10.487Z,6.00
2019-04-12T18:22:39.023Z,6.00
2019-04-12T18:25:08.463Z,6.00
2019-04-12T18:27:37.073Z,6.00
2019-04-12T18:30:08.790Z,6.00
2019-04-12T18:32:37.258Z,6.10
2019-04-12T18:35:07.572Z,6.10
2019-04-12T18:37:36.862Z,6.10
2019-04-12T18:40:06.971Z,6.10
2019-04-12T18:42:35.515Z,6.10
2019-04-12T18:45:10.062Z,6.00
2019-04-12T18:47:38.598Z,6.00
2019-04-12T18:50:07.802Z,6.00
2019-04-12T18:52:36.343Z,5.90
2019-04-12T18:55:07.094Z,5.90
2019-04-12T18:57:35.639Z,5.90
2019-04-12T19:00:08.136Z,5.80
2019-04-12T19:02:36.662Z,5.90
2019-04-12T19:05:07.372Z,5.90
2019-04-12T19:07:35.999Z,5.90
2019-04-12T19:10:06.759Z,6.00
2019-04-12T19:12:35.314Z,6.00
2019-04-12T19:15:09.575Z,6.00
2019-04-12T19:17:38.179Z,5.90
2019-04-12T19:20:07.727Z,5.90
2019-04-12T19:22:36.372Z,5.70
2019-04-12T19:25:06.750Z,5.50
2019-04-12T19:27:35.318Z,5.50
2019-04-12T19:30:07.241Z,5.60
2019-04-12T19:32:39.444Z,5.60
2019-04-12T19:35:09.416Z,5.50
2019-04-12T19:37:58.074Z,5.60
2019-04-12T19:40:28.250Z,5.50
2019-04-12T19:42:56.747Z,5.60
2019-04-12T19:45:25.290Z,5.60
2019-04-12T19:47:54.377Z,5.60
2019-04-12T19:50:22.977Z,5.50
2019-04-12T19:52:51.548Z,5.50
2019-04-12T19:55:20.087Z,5.50
2019-04-12T19:57:48.659Z,5.60
2019-04-12T20:00:17.706Z,5.40
2019-04-12T20:02:51.669Z,5.40
2019-04-12T20:05:16.474Z,5.50
2019-04-12T20:07:45.044Z,5.50
2019-04-12T20:10:13.651Z,5.40
2019-04-12T20:12:42.215Z,5.40
2019-04-12T20:15:11.094Z,5.40
2019-04-12T20:17:39.655Z,5.40
2019-04-12T20:20:08.625Z,5.30
2019-04-12T20:22:37.191Z,5.20
2019-04-12T20:25:07.074Z,5.30
2019-04-12T20:27:35.638Z,5.20
2019-04-12T20:30:07.262Z,5.20
2019-04-12T20:32:35.910Z,5.20
2019-04-12T20:35:04.984Z,5.10
2019-04-12T20:37:33.555Z,5.00
2019-04-12T20:40:02.105Z,5.10
2019-04-12T20:42:30.971Z,5.10
2019-04-12T20:44:59.510Z,4.90
2019-04-12T20:47:28.083Z,5.00
2019-04-12T20:49:56.632Z,4.90
2019-04-12T20:52:25.195Z,4.80
2019-04-12T20:54:53.734Z,4.70
2019-04-12T20:57:22.275Z,4.70
2019-04-12T20:59:50.839Z,4.80
2019-04-12T21:02:29.536Z,4.70
2019-04-12T21:04:49.600Z,4.80
2019-04-12T21:07:18.144Z,4.90
2019-04-12T21:09:46.710Z,4.80
2019-04-12T21:12:15.250Z,4.60
2019-04-12T21:14:43.818Z,4.50
2019-04-12T21:17:12.643Z,4.50
2019-04-12T21:19:41.203Z,4.50
2019-04-12T21:22:09.666Z,4.40
2019-04-12T21:24:38.248Z,4.50
2019-04-12T21:27:06.789Z,4.60
2019-04-12T21:29:35.358Z,4.70
2019-04-12T21:32:03.929Z,4.60
2019-04-12T21:34:32.466Z,4.50
2019-04-12T21:37:01.287Z,4.40
2019-04-12T21:39:30.965Z,4.50
2019-04-12T21:41:59.862Z,4.70
2019-04-12T21:44:28.439Z,4.60
2019-04-12T21:46:56.978Z,4.60
2019-04-12T21:49:25.575Z,4.60
2019-04-12T21:51:54.078Z,4.50
2019-04-12T21:54:22.579Z,4.30
2019-04-12T21:56:51.470Z,4.30
2019-04-12T21:59:20.038Z,4.30
2019-04-12T22:01:48.707Z,4.40
2019-04-12T22:04:17.771Z,4.40
2019-04-12T22:06:46.322Z,4.50
2019-04-12T22:09:14.878Z,4.30
2019-04-12T22:11:43.415Z,4.30
2019-04-12T22:14:15.002Z,4.50
2019-04-12T22:16:42.439Z,4.40
2019-04-12T22:19:11.006Z,4.50
2019-04-12T22:21:39.555Z,4.50
2019-04-12T22:24:08.180Z,4.30
2019-04-12T22:26:36.746Z,4.30
2019-04-12T22:29:05.287Z,4.30
2019-04-12T22:31:35.498Z,4.20
2019-04-12T22:34:04.098Z,4.10
2019-04-12T22:36:32.662Z,4.10
2019-04-12T22:39:01.219Z,4.20
2019-04-12T22:41:29.786Z,4.30
2019-04-12T22:43:58.328Z,4.40
2019-04-12T22:46:26.894Z,4.50
2019-04-12T22:48:55.433Z,4.50
2019-04-12T22:51:23.931Z,4.10
2019-04-12T22:53:52.467Z,4.20
2019-04-12T22:56:21.035Z,4.20
2019-04-12T22:58:49.570Z,4.20
2019-04-12T23:01:18.062Z,4.00
2019-04-12T23:03:46.603Z,3.90
2019-04-12T23:06:15.169Z,3.90
2019-04-12T23:08:43.903Z,4.00
2019-04-12T23:11:12.467Z,4.10
2019-04-12T23:13:41.010Z,4.10
2019-04-12T23:16:09.575Z,4.10
2019-04-12T23:18:38.435Z,4.00
2019-04-12T23:21:07.070Z,4.00
2019-04-12T23:23:35.611Z,4.10
2019-04-12T23:26:04.182Z,4.20
2019-04-12T23:28:32.719Z,4.00
2019-04-12T23:31:08.693Z,4.00
2019-04-12T23:33:38.866Z,4.00
2019-04-12T23:36:07.434Z,4.00
2019-04-12T23:38:35.975Z,3.90
2019-04-12T23:41:04.874Z,3.90
2019-04-12T23:43:33.418Z,3.80
2019-04-12T23:46:02.246Z,3.70
2019-04-12T23:48:30.784Z,3.90
2019-04-12T23:50:59.322Z,3.90
2019-04-12T23:53:27.890Z,3.90
2019-04-12T23:55:56.431Z,4.00
2019-04-12T23:58:25.000Z,4.00
